Time;durP1;ratioP1;P1;durP2;ratioP2;P2;SDS_P1;SDS_P2;PMS_P1;PMS_P2;Temp;Humidity;BMP_temperature;BMP_pressure;BME280_temperature;BME280_humidity;BME280_pressure;Samples;Min_cycle;Max_cycle;Signal;HPM_P1;HPM_P2
2022/03/29 00:01:30;;;;;;;35.65;19.85;;;;;;;;;;5048695;28;20032;-72
2022/03/29 00:03:56;;;;;;;34.50;19.60;;;;;;;;;;5032246;28;20036;-72
2022/03/29 00:06:23;;;;;;;39.22;21.02;;;;;;;;;;5045171;28;20096;-72
2022/03/29 00:08:49;;;;;;;37.33;20.85;;;;;;;;;;5045183;28;20057;-71
2022/03/29 00:11:17;;;;;;;38.03;21.63;;;;;;;;;;5044146;28;20066;-72
2022/03/29 00:13:43;;;;;;;36.25;20.75;;;;;;;;;;5045151;28;20053;-71
2022/03/29 00:16:09;;;;;;;38.42;20.52;;;;;;;;;;5045287;28;20051;-72
2022/03/29 00:18:35;;;;;;;38.50;20.65;;;;;;;;;;5045394;28;20481;-71
2022/03/29 00:21:01;;;;;;;34.30;20.65;;;;;;;;;;5045812;28;20037;-72
2022/03/29 00:23:27;;;;;;;38.97;20.10;;;;;;;;;;5043836;28;20040;-71
2022/03/29 00:25:53;;;;;;;33.15;19.58;;;;;;;;;;5044902;28;20131;-71
2022/03/29 00:28:19;;;;;;;34.47;19.67;;;;;;;;;;5044798;28;20492;-71
2022/03/29 00:30:45;;;;;;;36.03;20.40;;;;;;;;;;5044316;28;20525;-72
2022/03/29 00:33:11;;;;;;;36.13;19.85;;;;;;;;;;5044387;28;20553;-72
2022/03/29 00:35:38;;;;;;;37.53;20.55;;;;;;;;;;5045755;28;20701;-72
2022/03/29 00:38:04;;;;;;;37.45;21.17;;;;;;;;;;5043828;28;20040;-72
2022/03/29 00:40:30;;;;;;;39.08;21.40;;;;;;;;;;5043853;28;20033;-71
2022/03/29 00:42:57;;;;;;;35.63;20.48;;;;;;;;;;5044606;28;20127;-71
2022/03/29 00:45:23;;;;;;;35.58;20.67;;;;;;;;;;5042852;28;20196;-72
2022/03/29 00:47:50;;;;;;;35.30;19.88;;;;;;;;;;5045133;28;20037;-71
2022/03/29 00:50:16;;;;;;;35.88;20.25;;;;;;;;;;5044402;28;20075;-71
2022/03/29 00:52:42;;;;;;;32.83;18.83;;;;;;;;;;5027969;28;20504;-72
2022/03/29 00:55:12;;;;;;;33.70;19.70;;;;;;;;;;5044781;28;20032;-72
2022/03/29 00:57:38;;;;;;;31.75;18.60;;;;;;;;;;5045555;28;20393;-71
2022/03/29 01:00:05;;;;;;;35.10;20.77;;;;;;;;;;5044144;28;20048;-72
2022/03/29 01:02:31;;;;;;;32.78;18.95;;;;;;;;;;5061333;28;20033;-71
2022/03/29 01:04:57;;;;;;;32.35;19.40;;;;;;;;;;5045017;28;20033;-71
2022/03/29 01:07:24;;;;;;;26.90;17.25;;;;;;;;;;5044497;28;20060;-72
2022/03/29 01:09:50;;;;;;;30.67;17.73;;;;;;;;;;5045615;28;20131;-71
2022/03/29 01:12:16;;;;;;;29.08;18.35;;;;;;;;;;5044141;28;20171;-72
2022/03/29 01:14:43;;;;;;;26.70;17.17;;;;;;;;;;5044560;28;20161;-71
2022/03/29 01:20:09;;;;;;;32.13;18.70;;;;;;;;;;5048526;28;20040;-71
2022/03/29 01:22:36;;;;;;;28.65;17.48;;;;;;;;;;5025930;28;20370;-72
2022/03/29 01:25:02;;;;;;;29.27;17.05;;;;;;;;;;5043394;28;20044;-72
2022/03/29 01:27:31;;;;;;;29.10;18.23;;;;;;;;;;5044988;28;20449;-71
2022/03/29 01:29:59;;;;;;;26.73;17.40;;;;;;;;;;5044931;28;20048;-71
2022/03/29 01:32:29;;;;;;;27.15;17.08;;;;;;;;;;5043782;28;20044;-71
2022/03/29 01:34:56;;;;;;;27.52;17.00;;;;;;;;;;5012440;28;20045;-71
2022/03/29 01:37:22;;;;;;;28.15;17.52;;;;;;;;;;5044437;28;20128;-71
2022/03/29 01:39:48;;;;;;;28.52;17.33;;;;;;;;;;5043836;28;20036;-72
2022/03/29 01:42:14;;;;;;;29.98;17.58;;;;;;;;;;5044422;28;20431;-71
2022/03/29 01:44:40;;;;;;;25.75;16.83;;;;;;;;;;5027163;28;20134;-71
2022/03/29 01:47:07;;;;;;;31.88;17.17;;;;;;;;;;5044675;28;20036;-71
2022/03/29 01:49:33;;;;;;;27.58;17.45;;;;;;;;;;5044895;28;20040;-71
2022/03/29 01:51:59;;;;;;;27.90;17.15;;;;;;;;;;5060172;28;20508;-71
2022/03/29 01:54:26;;;;;;;26.73;16.30;;;;;;;;;;5026639;28;20409;-71
2022/03/29 01:56:52;;;;;;;28.65;17.95;;;;;;;;;;5044371;28;20033;-72
2022/03/29 01:59:18;;;;;;;26.83;17.85;;;;;;;;;;5043073;28;20152;-72
2022/03/29 02:01:44;;;;;;;24.63;16.02;;;;;;;;;;5044052;28;20052;-71
2022/03/29 02:04:10;;;;;;;25.73;17.05;;;;;;;;;;5044685;28;20033;-72
2022/03/29 02:06:36;;;;;;;26.08;16.33;;;;;;;;;;5026373;28;20561;-71
2022/03/29 02:09:03;;;;;;;25.70;17.08;;;;;;;;;;5059744;28;20067;-72
2022/03/29 02:11:29;;;;;;;25.70;16.95;;;;;;;;;;5026428;28;20040;-71
2022/03/29 02:13:56;;;;;;;31.17;19.02;;;;;;;;;;5042974;28;20507;-71
2022/03/29 02:16:22;;;;;;;28.27;16.27;;;;;;;;;;5042041;28;20493;-72
2022/03/29 02:18:48;;;;;;;27.88;17.77;;;;;;;;;;5027022;28;20036;-72
2022/03/29 02:21:15;;;;;;;25.80;17.55;;;;;;;;;;5047611;28;20041;-71
2022/03/29 02:23:41;;;;;;;25.27;17.05;;;;;;;;;;5048013;28;20029;-71
2022/03/29 02:26:07;;;;;;;26.55;18.42;;;;;;;;;;5062383;28;20135;-72
2022/03/29 02:28:33;;;;;;;30.25;17.33;;;;;;;;;;5031566;28;20123;-71
2022/03/29 02:30:59;;;;;;;25.50;17.08;;;;;;;;;;5047660;28;20041;-72
2022/03/29 02:33:25;;;;;;;27.52;17.65;;;;;;;;;;5048186;28;20045;-72
2022/03/29 02:35:52;;;;;;;24.77;16.35;;;;;;;;;;5031382;28;20429;-72
2022/03/29 02:38:20;;;;;;;26.38;17.02;;;;;;;;;;5047855;28;20459;-71
2022/03/29 02:40:46;;;;;;;26.05;17.17;;;;;;;;;;5029987;28;20461;-72
2022/03/29 02:43:12;;;;;;;26.45;17.25;;;;;;;;;;5030001;28;20048;-72
2022/03/29 02:45:39;;;;;;;24.98;15.98;;;;;;;;;;5047022;28;20037;-72
2022/03/29 02:48:05;;;;;;;25.65;17.65;;;;;;;;;;5048004;28;20036;-72
2022/03/29 02:50:32;;;;;;;26.83;17.33;;;;;;;;;;5046623;28;20119;-72
2022/03/29 02:52:59;;;;;;;22.92;16.55;;;;;;;;;;5046544;28;20044;-72
2022/03/29 02:55:27;;;;;;;25.42;17.13;;;;;;;;;;5047071;28;20122;-72
2022/03/29 02:57:53;;;;;;;21.92;16.02;;;;;;;;;;5046073;28;20119;-72
2022/03/29 03:00:20;;;;;;;24.92;16.45;;;;;;;;;;5045932;28;20044;-71
2022/03/29 03:02:47;;;;;;;25.92;17.55;;;;;;;;;;5047584;28;20043;-71
2022/03/29 03:05:13;;;;;;;26.95;18.80;;;;;;;;;;5045989;28;20520;-71
2022/03/29 03:07:43;;;;;;;26.33;18.42;;;;;;;;;;5045804;28;20085;-71
2022/03/29 03:10:09;;;;;;;25.48;17.05;;;;;;;;;;5045646;28;20493;-71
2022/03/29 03:12:39;;;;;;;28.90;18.05;;;;;;;;;;5029787;28;20041;-71
2022/03/29 03:15:06;;;;;;;27.90;18.17;;;;;;;;;;5029906;28;20059;-71
2022/03/29 03:17:33;;;;;;;23.85;16.90;;;;;;;;;;5030103;28;20039;-72
2022/03/29 03:19:59;;;;;;;30.33;19.77;;;;;;;;;;5047065;28;20060;-71
2022/03/29 03:22:25;;;;;;;29.25;19.00;;;;;;;;;;5047118;28;20124;-71
2022/03/29 03:24:51;;;;;;;28.73;19.95;;;;;;;;;;5030365;28;20413;-72
2022/03/29 03:27:17;;;;;;;30.70;20.42;;;;;;;;;;5045839;28;20599;-72
2022/03/29 03:29:47;;;;;;;28.27;19.05;;;;;;;;;;5028516;28;20037;-72
2022/03/29 03:32:13;;;;;;;28.15;19.73;;;;;;;;;;5030370;28;20479;-72
2022/03/29 03:34:39;;;;;;;33.38;21.75;;;;;;;;;;5045343;28;20492;-71
2022/03/29 03:37:06;;;;;;;28.60;19.77;;;;;;;;;;5045777;28;20505;-71
2022/03/29 03:39:33;;;;;;;30.55;20.48;;;;;;;;;;5027727;28;20030;-71
2022/03/29 03:42:00;;;;;;;32.75;22.15;;;;;;;;;;5045968;28;20083;-71
2022/03/29 03:44:26;;;;;;;33.15;22.33;;;;;;;;;;5045387;28;20041;-72
2022/03/29 03:46:52;;;;;;;34.10;22.38;;;;;;;;;;5028646;28;20084;-71
2022/03/29 03:49:18;;;;;;;32.08;21.60;;;;;;;;;;5044984;28;20053;-72
2022/03/29 03:51:44;;;;;;;34.35;22.67;;;;;;;;;;5045117;28;20489;-71
2022/03/29 03:54:10;;;;;;;35.67;23.10;;;;;;;;;;5046587;28;20431;-72
2022/03/29 03:56:36;;;;;;;29.10;21.25;;;;;;;;;;5047080;28;20099;-71
2022/03/29 03:59:03;;;;;;;37.47;23.48;;;;;;;;;;5046002;28;20075;-71
2022/03/29 04:01:29;;;;;;;35.03;23.02;;;;;;;;;;5028508;28;20060;-71
2022/03/29 04:03:55;;;;;;;33.42;21.10;;;;;;;;;;5046174;28;20114;-71
2022/03/29 04:06:21;;;;;;;30.98;20.63;;;;;;;;;;5012288;28;20044;-72
2022/03/29 04:08:48;;;;;;;28.90;18.77;;;;;;;;;;5045215;28;20037;-72
2022/03/29 04:11:14;;;;;;;32.15;19.38;;;;;;;;;;5060000;28;20444;-72
2022/03/29 04:13:40;;;;;;;30.38;20.23;;;;;;;;;;5045901;28;20124;-71
2022/03/29 04:16:06;;;;;;;32.17;19.48;;;;;;;;;;5045145;28;20041;-72
2022/03/29 04:18:32;;;;;;;28.80;19.17;;;;;;;;;;5044974;28;20040;-71
2022/03/29 04:21:00;;;;;;;27.10;19.30;;;;;;;;;;5043996;28;20132;-71
2022/03/29 04:23:26;;;;;;;33.50;20.55;;;;;;;;;;5045451;28;20052;-72
2022/03/29 04:25:52;;;;;;;32.15;19.65;;;;;;;;;;5044471;28;20035;-71
2022/03/29 04:28:19;;;;;;;29.65;18.98;;;;;;;;;;5027905;28;20032;-71
2022/03/29 04:30:45;;;;;;;27.20;18.00;;;;;;;;;;5027693;28;20048;-71
2022/03/29 04:33:11;;;;;;;31.02;19.25;;;;;;;;;;5043646;28;20043;-71
2022/03/29 04:35:37;;;;;;;32.80;20.48;;;;;;;;;;5045366;28;21321;-72
2022/03/29 04:38:03;;;;;;;31.88;19.58;;;;;;;;;;5062159;28;20048;-72
2022/03/29 04:40:30;;;;;;;29.83;19.48;;;;;;;;;;5029295;28;20485;-70
2022/03/29 04:43:00;;;;;;;34.95;20.65;;;;;;;;;;5044292;28;20084;-70
2022/03/29 04:45:26;;;;;;;31.48;19.23;;;;;;;;;;5028583;28;20374;-70
2022/03/29 04:47:52;;;;;;;36.53;20.58;;;;;;;;;;5045580;28;20075;-70
2022/03/29 04:50:18;;;;;;;28.25;18.02;;;;;;;;;;5045534;28;20064;-70
2022/03/29 04:52:46;;;;;;;35.03;20.42;;;;;;;;;;5044513;28;20075;-68
2022/03/29 04:55:12;;;;;;;35.58;20.27;;;;;;;;;;5028036;28;20048;-68
2022/03/29 04:57:41;;;;;;;32.88;19.55;;;;;;;;;;5044303;28;20041;-69
2022/03/29 05:00:08;;;;;;;30.98;18.13;;;;;;;;;;5027477;28;20154;-69
2022/03/29 05:02:35;;;;;;;31.75;18.00;;;;;;;;;;5059532;28;20029;-68
2022/03/29 05:05:02;;;;;;;32.67;19.77;;;;;;;;;;5043883;28;20041;-68
2022/03/29 05:07:28;;;;;;;32.72;19.77;;;;;;;;;;5047909;28;20057;-69
2022/03/29 05:09:55;;;;;;;35.72;20.40;;;;;;;;;;5048353;28;20060;-68
2022/03/29 05:12:21;;;;;;;36.28;21.67;;;;;;;;;;5048363;28;20079;-69
2022/03/29 05:14:47;;;;;;;35.80;20.88;;;;;;;;;;5047950;28;20045;-68
2022/03/29 05:17:13;;;;;;;35.40;21.13;;;;;;;;;;5047441;28;20409;-68
2022/03/29 05:19:40;;;;;;;36.40;20.70;;;;;;;;;;5046724;28;20032;-69
2022/03/29 05:22:06;;;;;;;32.63;19.80;;;;;;;;;;5031721;28;20063;-69
2022/03/29 05:24:32;;;;;;;46.33;32.65;;;;;;;;;;5047368;28;20032;-68
2022/03/29 05:26:58;;;;;;;33.38;21.20;;;;;;;;;;5047855;28;20032;-68
2022/03/29 05:29:25;;;;;;;35.40;20.77;;;;;;;;;;5047249;28;20496;-69
2022/03/29 05:31:51;;;;;;;35.45;21.75;;;;;;;;;;5032265;28;20040;-69
2022/03/29 05:34:17;;;;;;;36.85;20.25;;;;;;;;;;5047393;28;20064;-68
2022/03/29 05:36:46;;;;;;;29.85;19.83;;;;;;;;;;5047267;28;20437;-69
2022/03/29 05:39:16;;;;;;;37.13;21.20;;;;;;;;;;5032325;28;20041;-68
2022/03/29 05:41:43;;;;;;;36.45;21.95;;;;;;;;;;5048199;28;20040;-69
2022/03/29 05:44:09;;;;;;;36.58;22.27;;;;;;;;;;5046782;28;20137;-69
2022/03/29 05:49:20;;;;;;;33.72;20.77;;;;;;;;;;5047750;28;20036;-69
2022/03/29 05:51:46;;;;;;;37.35;20.80;;;;;;;;;;5047065;28;20045;-68
2022/03/29 05:54:13;;;;;;;35.22;20.67;;;;;;;;;;5044953;28;20532;-68
2022/03/29 05:56:39;;;;;;;37.53;22.00;;;;;;;;;;5044787;28;20445;-68
2022/03/29 05:59:08;;;;;;;39.75;21.23;;;;;;;;;;5046400;28;20044;-68
2022/03/29 06:01:34;;;;;;;35.42;20.95;;;;;;;;;;5047617;28;20059;-68
2022/03/29 06:04:06;;;;;;;31.02;19.00;;;;;;;;;;5048035;28;20446;-68
2022/03/29 06:06:33;;;;;;;32.05;19.65;;;;;;;;;;5032001;28;20209;-68
2022/03/29 06:08:59;;;;;;;36.10;20.15;;;;;;;;;;5044564;28;20043;-68
2022/03/29 06:11:25;;;;;;;34.67;19.77;;;;;;;;;;5046118;28;20048;-67
2022/03/29 06:13:51;;;;;;;35.65;19.83;;;;;;;;;;5047689;28;20362;-67
2022/03/29 06:16:17;;;;;;;33.67;19.85;;;;;;;;;;5029898;28;20036;-67
2022/03/29 06:18:43;;;;;;;34.90;20.73;;;;;;;;;;5065845;28;20033;-67
2022/03/29 06:21:10;;;;;;;34.85;20.13;;;;;;;;;;5046787;28;20125;-67
2022/03/29 06:23:36;;;;;;;39.08;21.48;;;;;;;;;;5047283;28;20044;-69
2022/03/29 06:26:02;;;;;;;34.42;20.33;;;;;;;;;;5046224;28;20036;-68
2022/03/29 06:28:28;;;;;;;31.55;19.05;;;;;;;;;;5047726;28;20111;-69
2022/03/29 06:30:55;;;;;;;36.92;19.50;;;;;;;;;;5031550;28;20112;-68
2022/03/29 06:33:21;;;;;;;38.38;20.60;;;;;;;;;;5047587;28;20051;-69
2022/03/29 06:35:47;;;;;;;33.47;20.08;;;;;;;;;;5046933;28;20468;-68
2022/03/29 06:38:14;;;;;;;36.45;20.83;;;;;;;;;;5048416;28;20040;-68
2022/03/29 06:40:40;;;;;;;33.03;19.77;;;;;;;;;;5046557;28;20128;-67
2022/03/29 06:43:06;;;;;;;33.00;20.77;;;;;;;;;;5044601;28;20079;-68
2022/03/29 06:45:32;;;;;;;32.75;20.85;;;;;;;;;;5064257;28;20493;-69
2022/03/29 06:47:58;;;;;;;39.28;20.85;;;;;;;;;;5047568;28;20032;-68
2022/03/29 06:50:24;;;;;;;35.35;20.65;;;;;;;;;;5046266;28;20043;-69
2022/03/29 06:52:51;;;;;;;33.33;18.83;;;;;;;;;;5046699;28;20036;-69
2022/03/29 06:55:18;;;;;;;29.83;19.10;;;;;;;;;;5046479;28;20045;-68
2022/03/29 06:57:44;;;;;;;33.53;19.52;;;;;;;;;;5047045;28;20459;-68
2022/03/29 07:00:12;;;;;;;34.10;20.52;;;;;;;;;;5045970;28;20052;-68
2022/03/29 07:02:39;;;;;;;33.40;19.75;;;;;;;;;;5046152;28;20140;-69
2022/03/29 07:05:06;;;;;;;33.22;19.42;;;;;;;;;;5064654;28;20097;-69
2022/03/29 07:07:32;;;;;;;29.75;19.25;;;;;;;;;;5049286;28;20060;-68
2022/03/29 07:13:02;;;;;;;31.60;19.30;;;;;;;;;;5050751;28;20720;-69
2022/03/29 07:15:29;;;;;;;35.00;19.08;;;;;;;;;;5032756;28;20107;-69
2022/03/29 07:17:55;;;;;;;32.22;20.13;;;;;;;;;;5033135;28;20508;-69
2022/03/29 07:20:21;;;;;;;33.08;19.85;;;;;;;;;;5034597;28;20373;-69
2022/03/29 07:22:49;;;;;;;36.13;19.77;;;;;;;;;;5051134;28;20036;-69
2022/03/29 07:25:17;;;;;;;34.80;20.38;;;;;;;;;;5050982;28;20040;-69
2022/03/29 07:27:43;;;;;;;30.70;17.95;;;;;;;;;;5050611;28;20047;-69
2022/03/29 07:30:10;;;;;;;36.38;20.13;;;;;;;;;;5049888;28;20048;-69
2022/03/29 07:32:47;;;;;;;27.88;18.38;;;;;;;;;;5049787;28;20059;-69
2022/03/29 07:35:14;;;;;;;32.97;19.08;;;;;;;;;;5048138;28;20043;-69
2022/03/29 07:37:40;;;;;;;32.17;19.70;;;;;;;;;;5047785;28;20040;-69
2022/03/29 07:40:08;;;;;;;33.65;18.40;;;;;;;;;;5048856;28;20456;-69
2022/03/29 07:42:35;;;;;;;30.50;18.65;;;;;;;;;;5048370;28;20060;-69
2022/03/29 07:45:03;;;;;;;32.60;19.98;;;;;;;;;;5050070;28;20163;-68
2022/03/29 07:47:29;;;;;;;31.30;19.15;;;;;;;;;;5050288;28;20052;-69
2022/03/29 07:49:55;;;;;;;29.75;18.80;;;;;;;;;;5050495;28;20032;-69
2022/03/29 07:52:21;;;;;;;34.22;19.05;;;;;;;;;;5050193;28;20040;-69
2022/03/29 07:54:48;;;;;;;29.83;19.35;;;;;;;;;;5033818;28;20062;-68
2022/03/29 07:57:14;;;;;;;35.22;18.92;;;;;;;;;;5050233;28;20059;-68
2022/03/29 07:59:40;;;;;;;33.47;20.30;;;;;;;;;;5050543;28;20033;-69
2022/03/29 08:02:06;;;;;;;33.17;19.50;;;;;;;;;;5049756;28;20043;-68
2022/03/29 08:04:36;;;;;;;35.28;19.85;;;;;;;;;;5049927;28;20048;-69
2022/03/29 08:07:02;;;;;;;34.80;19.52;;;;;;;;;;5047184;28;20397;-68
2022/03/29 08:09:28;;;;;;;32.25;20.73;;;;;;;;;;5045595;28;20052;-68
2022/03/29 08:11:55;;;;;;;33.50;20.05;;;;;;;;;;5045172;28;20036;-69
2022/03/29 08:14:25;;;;;;;34.05;21.17;;;;;;;;;;5045516;28;20504;-68
2022/03/29 08:16:53;;;;;;;40.70;22.42;;;;;;;;;;5042817;28;20055;-68
2022/03/29 08:19:19;;;;;;;34.80;21.35;;;;;;;;;;5045134;28;20037;-68
2022/03/29 08:21:49;;;;;;;35.35;21.85;;;;;;;;;;5045274;28;20649;-69
2022/03/29 08:24:15;;;;;;;36.50;21.10;;;;;;;;;;5043906;28;20049;-69
2022/03/29 08:26:42;;;;;;;36.88;23.42;;;;;;;;;;5046014;28;20103;-68
2022/03/29 08:29:08;;;;;;;38.03;22.45;;;;;;;;;;5028650;28;20059;-68
2022/03/29 08:31:35;;;;;;;36.58;21.77;;;;;;;;;;5044621;28;20036;-68
2022/03/29 08:34:01;;;;;;;36.15;20.05;;;;;;;;;;5045132;28;20045;-69
2022/03/29 08:36:27;;;;;;;35.55;19.52;;;;;;;;;;5045014;28;20491;-67
2022/03/29 08:38:53;;;;;;;37.38;20.95;;;;;;;;;;5044715;28;20698;-68
2022/03/29 08:41:19;;;;;;;35.58;21.48;;;;;;;;;;5045802;28;20099;-68
2022/03/29 08:43:45;;;;;;;35.80;20.20;;;;;;;;;;5027550;28;20041;-68
2022/03/29 08:46:11;;;;;;;34.67;19.65;;;;;;;;;;5045430;28;20056;-68
2022/03/29 08:48:37;;;;;;;35.30;20.27;;;;;;;;;;5045113;28;20033;-68
2022/03/29 08:51:04;;;;;;;32.08;19.58;;;;;;;;;;5045819;28;20072;-68
2022/03/29 08:53:30;;;;;;;39.10;20.95;;;;;;;;;;5045211;28;20045;-68
2022/03/29 08:55:57;;;;;;;31.55;18.50;;;;;;;;;;5044163;28;20067;-68
2022/03/29 08:58:24;;;;;;;33.63;18.88;;;;;;;;;;5061819;28;20079;-68
2022/03/29 09:00:50;;;;;;;30.92;18.92;;;;;;;;;;5045445;28;20041;-68
2022/03/29 09:03:17;;;;;;;34.50;19.35;;;;;;;;;;5045623;28;20040;-68
2022/03/29 09:05:43;;;;;;;28.95;18.20;;;;;;;;;;5044530;28;20037;-68
2022/03/29 09:08:11;;;;;;;28.90;18.55;;;;;;;;;;5048808;28;20067;-68
2022/03/29 09:10:48;;;;;;;31.02;18.65;;;;;;;;;;5048570;28;20059;-68
2022/03/29 09:13:20;;;;;;;29.58;18.73;;;;;;;;;;5032082;28;20523;-68
2022/03/29 09:15:47;;;;;;;32.13;18.80;;;;;;;;;;5048904;28;20519;-68
2022/03/29 09:18:13;;;;;;;38.50;20.38;;;;;;;;;;5048337;28;20044;-68
2022/03/29 09:20:40;;;;;;;30.73;18.88;;;;;;;;;;5048140;28;20051;-68
2022/03/29 09:23:12;;;;;;;32.58;18.92;;;;;;;;;;5048368;28;20170;-68
2022/03/29 09:25:39;;;;;;;31.52;17.95;;;;;;;;;;5047898;28;20069;-68
2022/03/29 09:28:10;;;;;;;32.30;18.45;;;;;;;;;;5048786;28;20029;-68
2022/03/29 09:30:38;;;;;;;34.90;18.77;;;;;;;;;;5048831;28;20182;-68
2022/03/29 09:33:08;;;;;;;30.42;18.35;;;;;;;;;;5048434;28;20052;-68
2022/03/29 09:35:37;;;;;;;33.83;18.35;;;;;;;;;;5048134;28;20036;-68
2022/03/29 09:38:19;;;;;;;33.22;18.88;;;;;;;;;;5048235;28;20045;-68
2022/03/29 09:40:45;;;;;;;36.75;20.40;;;;;;;;;;5048166;28;20071;-68
2022/03/29 09:43:11;;;;;;;31.63;19.25;;;;;;;;;;5047779;28;20043;-68
2022/03/29 09:45:42;;;;;;;34.72;19.23;;;;;;;;;;5030772;28;20044;-68
2022/03/29 09:48:20;;;;;;;36.17;19.98;;;;;;;;;;5047346;28;20037;-68
2022/03/29 09:50:47;;;;;;;32.85;18.48;;;;;;;;;;5030570;28;20127;-68
2022/03/29 09:53:31;;;;;;;34.00;18.95;;;;;;;;;;5030589;28;20040;-68
2022/03/29 09:56:01;;;;;;;35.08;20.48;;;;;;;;;;5047497;28;20055;-68
2022/03/29 09:58:28;;;;;;;32.28;19.45;;;;;;;;;;5048123;28;20544;-68
2022/03/29 10:00:57;;;;;;;33.17;19.48;;;;;;;;;;5048028;28;20714;-68
2022/03/29 10:03:26;;;;;;;34.85;20.83;;;;;;;;;;5048815;28;20068;-67
2022/03/29 10:05:54;;;;;;;32.20;19.45;;;;;;;;;;5049916;28;20047;-66
2022/03/29 10:11:13;;;;;;;35.72;19.77;;;;;;;;;;5046236;28;20048;-69
2022/03/29 10:13:40;;;;;;;35.20;19.88;;;;;;;;;;5046949;28;20078;-69
2022/03/29 10:16:10;;;;;;;32.25;19.70;;;;;;;;;;5047963;28;21737;-69
2022/03/29 10:18:36;;;;;;;32.25;19.77;;;;;;;;;;5046853;28;20068;-69
2022/03/29 10:21:04;;;;;;;35.70;20.88;;;;;;;;;;5046587;28;20048;-69
2022/03/29 10:23:30;;;;;;;35.80;19.73;;;;;;;;;;5047273;28;20051;-69
2022/03/29 10:25:58;;;;;;;39.63;20.13;;;;;;;;;;5046688;28;20089;-68
2022/03/29 10:28:25;;;;;;;37.20;20.08;;;;;;;;;;5063354;28;20045;-68
2022/03/29 10:30:51;;;;;;;34.70;20.20;;;;;;;;;;5046868;28;20080;-68
2022/03/29 10:33:19;;;;;;;33.47;20.70;;;;;;;;;;5030701;28;20035;-68
2022/03/29 10:36:08;;;;;;;34.28;19.10;;;;;;;;;;5043337;28;20044;-68
2022/03/29 10:38:46;;;;;;;32.42;18.63;;;;;;;;;;5029189;28;20047;-68
2022/03/29 10:41:30;;;;;;;37.08;18.48;;;;;;;;;;5052197;28;20040;-69
2022/03/29 10:44:04;;;;;;;31.27;19.00;;;;;;;;;;5050927;28;20044;-69
2022/03/29 10:46:50;;;;;;;37.80;19.13;;;;;;;;;;5051252;28;20044;-69
2022/03/29 10:49:22;;;;;;;34.90;18.73;;;;;;;;;;5050865;28;20389;-70
2022/03/29 10:51:49;;;;;;;29.35;17.30;;;;;;;;;;5050179;28;20064;-69
2022/03/29 10:54:26;;;;;;;32.40;18.40;;;;;;;;;;5051261;28;20047;-69
2022/03/29 10:57:00;;;;;;;28.15;17.48;;;;;;;;;;5065803;28;20389;-69
2022/03/29 10:59:30;;;;;;;26.77;16.73;;;;;;;;;;5051955;28;20036;-69
2022/03/29 11:02:09;;;;;;;30.20;17.70;;;;;;;;;;5050226;28;20039;-69
2022/03/29 11:04:36;;;;;;;30.35;17.27;;;;;;;;;;5035010;28;20084;-69
2022/03/29 11:07:11;;;;;;;33.20;17.33;;;;;;;;;;5050350;28;20072;-68
2022/03/29 11:09:38;;;;;;;33.25;17.63;;;;;;;;;;5050862;28;20044;-70
2022/03/29 11:12:05;;;;;;;32.95;18.25;;;;;;;;;;5051129;28;20061;-69
2022/03/29 11:14:33;;;;;;;30.67;18.27;;;;;;;;;;5068116;28;20476;-69
2022/03/29 11:17:11;;;;;;;29.95;17.50;;;;;;;;;;5050625;28;20043;-69
2022/03/29 11:19:48;;;;;;;28.92;17.25;;;;;;;;;;5052149;28;20124;-69
2022/03/29 11:22:42;;;;;;;36.08;18.52;;;;;;;;;;5051184;28;20037;-69
2022/03/29 11:25:09;;;;;;;32.70;19.38;;;;;;;;;;5051802;28;20181;-69
2022/03/29 11:27:36;;;;;;;31.85;17.45;;;;;;;;;;5050727;28;20097;-69
2022/03/29 11:30:06;;;;;;;30.20;17.40;;;;;;;;;;5052499;28;20048;-69
2022/03/29 11:32:34;;;;;;;33.88;18.13;;;;;;;;;;5054116;28;20585;-69
2022/03/29 11:35:00;;;;;;;32.90;18.45;;;;;;;;;;5050190;28;20048;-69
2022/03/29 11:37:37;;;;;;;29.23;18.02;;;;;;;;;;5054112;28;20123;-69
2022/03/29 11:40:04;;;;;;;30.17;17.55;;;;;;;;;;5052476;28;20048;-69
2022/03/29 11:42:44;;;;;;;30.17;17.60;;;;;;;;;;5067417;28;20064;-68
2022/03/29 11:45:11;;;;;;;36.33;18.42;;;;;;;;;;5052293;28;20043;-69
2022/03/29 11:47:37;;;;;;;33.20;18.42;;;;;;;;;;5051260;28;20052;-69
2022/03/29 11:50:04;;;;;;;35.97;18.85;;;;;;;;;;5050552;28;20040;-69
2022/03/29 11:52:38;;;;;;;28.45;16.23;;;;;;;;;;5051175;28;20037;-69
2022/03/29 11:55:15;;;;;;;28.35;16.52;;;;;;;;;;5051584;28;20041;-69
2022/03/29 11:57:41;;;;;;;31.15;17.63;;;;;;;;;;5051201;28;20048;-69
2022/03/29 12:00:23;;;;;;;29.30;15.70;;;;;;;;;;5050355;28;20029;-69
2022/03/29 12:02:49;;;;;;;27.98;17.30;;;;;;;;;;5034230;28;20052;-69
2022/03/29 12:05:28;;;;;;;28.17;16.40;;;;;;;;;;5050833;28;20125;-69
2022/03/29 12:08:03;;;;;;;26.30;15.25;;;;;;;;;;5050887;28;20053;-69
2022/03/29 12:10:37;;;;;;;27.95;16.40;;;;;;;;;;5050650;28;20068;-68
2022/03/29 12:13:03;;;;;;;23.83;15.73;;;;;;;;;;5048641;28;20066;-69
2022/03/29 12:15:29;;;;;;;29.77;15.05;;;;;;;;;;5048351;28;20063;-69
2022/03/29 12:18:40;;;;;;;29.02;15.40;;;;;;;;;;5049438;28;20057;-69
2022/03/29 12:20:43;;;;;;;23.95;14.80;;;;;;;;;;5047283;28;20044;-69
2022/03/29 12:23:29;;;;;;;32.10;16.52;;;;;;;;;;5052321;28;20078;-69
2022/03/29 12:25:58;;;;;;;27.40;15.23;;;;;;;;;;5052736;28;20200;-69
2022/03/29 12:28:26;;;;;;;31.15;17.45;;;;;;;;;;5050016;28;20039;-69
2022/03/29 12:30:54;;;;;;;32.58;16.42;;;;;;;;;;5050387;28;20435;-68
2022/03/29 12:33:23;;;;;;;28.17;16.60;;;;;;;;;;5049637;28;20496;-69
2022/03/29 12:36:01;;;;;;;30.13;15.77;;;;;;;;;;5050289;28;20056;-69
2022/03/29 12:38:27;;;;;;;32.67;16.92;;;;;;;;;;5051598;28;20058;-69
2022/03/29 12:40:57;;;;;;;32.00;16.55;;;;;;;;;;5049394;28;20052;-68
2022/03/29 12:43:27;;;;;;;38.42;17.02;;;;;;;;;;5050393;28;20443;-69
2022/03/29 12:45:53;;;;;;;33.25;17.05;;;;;;;;;;5066889;28;20060;-69
2022/03/29 12:48:21;;;;;;;32.88;16.25;;;;;;;;;;5048252;28;20559;-69
2022/03/29 12:50:47;;;;;;;27.73;15.73;;;;;;;;;;5049465;28;20056;-69
2022/03/29 12:53:15;;;;;;;29.38;15.88;;;;;;;;;;5049236;28;20492;-69
2022/03/29 12:55:53;;;;;;;29.95;16.15;;;;;;;;;;5065221;28;20580;-70
2022/03/29 12:58:29;;;;;;;25.13;15.60;;;;;;;;;;5046712;28;20048;-69
2022/03/29 13:00:55;;;;;;;;;;;;;;;;;;5050510;28;20048;-69
2022/03/29 13:03:21;;;;;;;27.88;15.00;;;;;;;;;;5051618;28;19920;-70
2022/03/29 13:05:48;;;;;;;28.83;16.42;;;;;;;;;;5048703;28;20425;-69
2022/03/29 13:08:22;;;;;;;29.23;16.50;;;;;;;;;;5050021;28;20079;-69
2022/03/29 13:10:51;;;;;;;28.33;15.32;;;;;;;;;;5049330;28;20048;-69
2022/03/29 13:13:22;;;;;;;30.38;15.57;;;;;;;;;;5048399;28;20041;-69
2022/03/29 13:15:56;;;;;;;27.05;15.63;;;;;;;;;;5048243;28;20044;-69
2022/03/29 13:18:31;;;;;;;26.75;15.68;;;;;;;;;;5049021;28;20043;-69
2022/03/29 13:21:06;;;;;;;29.55;16.02;;;;;;;;;;5048362;28;20082;-69
2022/03/29 13:23:35;;;;;;;27.48;16.42;;;;;;;;;;5046905;28;20051;-69
2022/03/29 13:26:02;;;;;;;30.42;16.95;;;;;;;;;;5047579;28;20029;-69
2022/03/29 13:28:29;;;;;;;26.50;16.80;;;;;;;;;;5033083;28;20101;-69
2022/03/29 13:30:55;;;;;;;30.58;15.93;;;;;;;;;;5048964;28;20029;-69
2022/03/29 13:33:21;;;;;;;29.58;15.75;;;;;;;;;;5050549;28;20123;-69
2022/03/29 13:35:50;;;;;;;24.42;16.17;;;;;;;;;;5050322;28;21483;-69
2022/03/29 13:38:17;;;;;;;28.23;16.52;;;;;;;;;;5050818;28;20053;-69
2022/03/29 13:40:43;;;;;;;24.85;16.70;;;;;;;;;;5050000;28;20381;-69
2022/03/29 13:43:09;;;;;;;27.17;15.93;;;;;;;;;;5048547;28;20097;-69
2022/03/29 13:45:35;;;;;;;27.67;15.52;;;;;;;;;;5049435;28;20078;-69
2022/03/29 13:48:03;;;;;;;29.40;15.25;;;;;;;;;;5052034;28;20075;-69
2022/03/29 13:50:29;;;;;;;27.85;16.27;;;;;;;;;;5029997;28;20044;-70
2022/03/29 13:52:55;;;;;;;27.48;16.60;;;;;;;;;;5047242;28;20465;-69
2022/03/29 13:55:22;;;;;;;28.13;16.70;;;;;;;;;;5047185;28;20045;-69
2022/03/29 13:57:48;;;;;;;29.52;16.23;;;;;;;;;;5030792;28;20487;-69
2022/03/29 14:00:15;;;;;;;25.77;15.68;;;;;;;;;;5030703;28;20044;-69
2022/03/29 14:02:42;;;;;;;26.52;15.32;;;;;;;;;;5048074;28;20051;-69
2022/03/29 14:05:08;;;;;;;27.52;16.10;;;;;;;;;;5047137;28;20040;-69
2022/03/29 14:07:34;;;;;;;30.77;15.80;;;;;;;;;;5047523;28;20083;-69
2022/03/29 14:10:00;;;;;;;30.02;15.43;;;;;;;;;;5045581;28;20072;-69
2022/03/29 14:12:26;;;;;;;28.08;15.55;;;;;;;;;;5048568;28;20052;-69
2022/03/29 14:14:52;;;;;;;28.70;15.70;;;;;;;;;;5046774;28;20070;-69
2022/03/29 14:17:18;;;;;;;28.50;16.08;;;;;;;;;;5047963;28;20123;-70
2022/03/29 14:19:49;;;;;;;31.65;15.95;;;;;;;;;;5049311;28;20384;-69
2022/03/29 14:22:16;;;;;;;27.88;14.68;;;;;;;;;;5047966;28;20045;-69
2022/03/29 14:24:42;;;;;;;27.70;15.57;;;;;;;;;;5048147;28;20135;-69
2022/03/29 14:27:09;;;;;;;24.10;14.27;;;;;;;;;;5048564;28;20029;-70
2022/03/29 14:29:35;;;;;;;27.08;14.57;;;;;;;;;;5048338;28;20048;-69
2022/03/29 14:32:02;;;;;;;22.13;12.93;;;;;;;;;;5047605;28;20068;-69
2022/03/29 14:34:29;;;;;;;25.90;13.38;;;;;;;;;;5047404;28;20040;-69